Available data for KLBE from the past 2 hours
LATROBE/WESTMORL, PA
Metar
KLBE 162350Z 24010KT 5SM -RA BKN036 03/00 A3010

23:50 UTC

Wind: 240° 10kt

Visibility: 5 SM

Sky: BKN 3600 ft

Temp: 3 deg C / 37.4 deg F

Dewpoint: 0 deg C / 32 deg F

Pressure: 30.1 inHg

TAF
KLBE 162320Z 1700/1724 27005KT P6SM -RASN OVC045 FM170300 VRB03KT P6SM SCT100 FM171500 09005KT P6SM BKN200